Terminal Aerodrome Forecast
Issued by NWS

Home | Current Version | Previous Version | Graphics & Text | Print | Product List | Glossary Off
Versions: 1 2 3 4 5 6 7 8 9 10 11 12 13 14 15 16 17

352
FTUS43 KBIS 081720
TAFMOT
TAF
KMOT 081720Z 0818/0918 30018G26KT P6SM BKN150
     FM090000 30010KT P6SM BKN100
     FM090800 34006KT P6SM OVC050
     FM090900 36005KT P6SM OVC025=

USA.gov is the U.S. government's official web portal to all federal, state and local government web resources and services.